Quick Links (Output Below):   Max & Min Temps   /   Climate Reports   /   Zone Forecasts
River Forecasts   /   Forestry Forecasts   /   Aviation Forecasts   /   Radars   /   Features

Terminal Aerodrome Forecast (Little Rock)

Pick a Site:
Arkadelphia | El Dorado | Fayetteville | Fort Smith | Harrison | Highfill | Hot Springs | Jonesboro
Little Rock | Monticello | Mountain Home | Pine Bluff | Texarkana
 Forecast 

KLIT 240101Z 2401/2424 24005KT P6SM -RA BKN040
     FM240500 30005KT P6SM SCT150 SCT250
     FM241200 03006KT P6SM SCT250=


 Latest METARs (Observations) 
How to Decode METARs
04Z KLIT 240353Z 32004KT 10SM BKN250 22/20 A3000 RMK AO2 SLP158
         T02170200
         
03Z KLIT 240253Z 00000KT 10SM SCT100 BKN250 22/20 A3000 RMK AO2 SLP160
         60008 T02170200 56026
         
02Z KLIT 240153Z 26007KT 10SM BKN100 BKN250 22/21 A3001 RMK AO2 RAE13
         PRESFR SLP162 P0000 T02220206
         
01Z KLIT 240053Z 24005KT 10SM -RA FEW040 BKN100 BKN250 22/21 A3003 RMK
         AO2 TSE38 PRESFR SLP169 OCNL LTGCG DSNT S P0008 T02220211
         
00Z KLIT 232353Z 28008KT 3SM TSRA BR SCT020 BKN040CB OVC100 23/21
         A3008 RMK AO2 SLP187 OCNL LTGICCA ALQDS TS ALQDS MOV S P0011
         60159 T02280211 10328 20222 50039
         
***** Today's Observations (Above) *****


23Z KLIT 232253Z 34015G22KT 2 1/2SM TSRA BR SCT009 BKN020 OVC040CB
         22/21 A3010 RMK AO2 PK WND 02036/2217 WSHFT 2155 SLP193 OCNL
         LTGICCG ALQDS TS ALQDS MOV S P0148 T02220211
         
22Z KLIT 232153Z 26006KT 7SM -TSRA FEW025 OVC040CB 29/23 A2997 RMK AO2
         TSB44RAB52 SLP146 OCNL LTGICCG W-N TS W-N MOV S P0000
         T02940233
         
21Z KLIT 232053Z 19005KT 10SM BKN040 OVC150 31/23 A2997 RMK AO2 SLP146
         T03060228 55023
         
20Z KLIT 231953Z 20010KT 10SM FEW040 SCT170 BKN250 33/23 A2995 RMK AO2
         PRESFR SLP142 T03280233
         
19Z KLIT 231853Z 27005KT 10SM SCT045 SCT250 32/23 A3000 RMK AO2 SLP159
         T03220233
         
***** Yesterday's Observations (Above) *****


Back to Main Page
http://www.srh.noaa.gov/lzk/qfcst.php

USA.gov is the U.S. government's official web portal to all federal, state and local government web resources and services.